SEH3IR LGTS-LGIR
Flight info
| Callsign | SEH3IR |
|---|---|
| Flight time | 0h 58m |
| Altitude | 31000 |
| Route | LEKPO L617 IBIDI UL617 KEA UL607 GIVIS T514 XAVIS |
| Aircraft | A320/M-SDE3FGHIRWY/LB1 |
Departure
| Time | 2026-04-28 15:06 |
|---|---|
| Airport | Thessaloniki Macedonia International Airport (LGTS) |
Arrival
| Time | 2026-04-28 16:04 |
|---|---|
| Airport | Heraklion International Nikos Kazantzakis Airport (LGIR) |
| Time | Latitude | Longitude | Altitude | Speed | Heading |
|---|---|---|---|---|---|
| 2026-04-28 14:49 | 40.52402 | 22.97461 | 29 ft | 0 kts | 44° |
| 2026-04-28 14:59 | 40.52399 | 22.97457 | 28 ft | 3 kts | 44° |
| 2026-04-28 14:59 | 40.52383 | 22.97436 | 28 ft | 3 kts | 44° |
| 2026-04-28 14:59 | 40.52363 | 22.97419 | 28 ft | 4 kts | 360° |
| 2026-04-28 14:59 | 40.52343 | 22.97430 | 28 ft | 3 kts | 315° |
| 2026-04-28 15:00 | 40.52331 | 22.97445 | 28 ft | 0 kts | 315° |
| 2026-04-28 15:01 | 40.52334 | 22.97441 | 28 ft | 3 kts | 315° |
| 2026-04-28 15:02 | 40.52369 | 22.97396 | 28 ft | 7 kts | 315° |
| 2026-04-28 15:02 | 40.52401 | 22.97351 | 28 ft | 7 kts | 303° |
| 2026-04-28 15:02 | 40.52391 | 22.97258 | 28 ft | 14 kts | 256° |
| 2026-04-28 15:02 | 40.52400 | 22.97147 | 28 ft | 12 kts | 320° |
| 2026-04-28 15:03 | 40.52503 | 22.97111 | 28 ft | 21 kts | 347° |
| 2026-04-28 15:03 | 40.52640 | 22.97068 | 29 ft | 19 kts | 347° |
| 2026-04-28 15:03 | 40.52766 | 22.97028 | 29 ft | 18 kts | 346° |
| 2026-04-28 15:03 | 40.52882 | 22.96990 | 29 ft | 16 kts | 346° |
| 2026-04-28 15:04 | 40.52988 | 22.96956 | 29 ft | 15 kts | 346° |
| 2026-04-28 15:04 | 40.53069 | 22.96929 | 28 ft | 10 kts | 338° |
| 2026-04-28 15:04 | 40.53065 | 22.96855 | 28 ft | 8 kts | 242° |
| 2026-04-28 15:04 | 40.53021 | 22.96794 | 28 ft | 10 kts | 223° |
| 2026-04-28 15:05 | 40.52949 | 22.96787 | 29 ft | 14 kts | 167° |
| 2026-04-28 15:05 | 40.52643 | 22.96883 | 29 ft | 81 kts | 166° |
| 2026-04-28 15:05 | 40.51887 | 22.97123 | 28 ft | 139 kts | 166° |
| 2026-04-28 15:05 | 40.50840 | 22.97448 | 392 ft | 157 kts | 169° |
| 2026-04-28 15:06 | 40.49778 | 22.97746 | 1154 ft | 155 kts | 169° |
| 2026-04-28 15:06 | 40.48723 | 22.98021 | 1906 ft | 157 kts | 168° |
| 2026-04-28 15:06 | 40.47592 | 22.98327 | 2291 ft | 177 kts | 168° |
| 2026-04-28 15:06 | 40.46311 | 22.98679 | 2604 ft | 200 kts | 169° |
| 2026-04-28 15:07 | 40.44863 | 22.99078 | 2965 ft | 225 kts | 169° |
| 2026-04-28 15:07 | 40.43245 | 22.99527 | 3434 ft | 250 kts | 169° |
| 2026-04-28 15:07 | 40.41472 | 23.00024 | 4023 ft | 268 kts | 169° |
| 2026-04-28 15:07 | 40.39626 | 23.00546 | 4906 ft | 274 kts | 168° |
| 2026-04-28 15:08 | 40.37742 | 23.01078 | 5792 ft | 280 kts | 168° |
| 2026-04-28 15:08 | 40.35816 | 23.01626 | 6656 ft | 286 kts | 166° |
| 2026-04-28 15:08 | 40.33903 | 23.02443 | 7483 ft | 291 kts | 158° |
| 2026-04-28 15:08 | 40.32034 | 23.03511 | 8395 ft | 295 kts | 155° |
| 2026-04-28 15:09 | 40.30169 | 23.04690 | 9272 ft | 300 kts | 154° |
| 2026-04-28 15:09 | 40.28285 | 23.05906 | 10125 ft | 304 kts | 154° |
| 2026-04-28 15:09 | 40.26326 | 23.07155 | 10540 ft | 325 kts | 155° |
| 2026-04-28 15:09 | 40.24913 | 23.08037 | 10759 ft | 339 kts | 155° |
| 2026-04-28 15:10 | 40.22030 | 23.09800 | 11637 ft | 350 kts | 156° |
| 2026-04-28 15:10 | 40.20530 | 23.10704 | 12169 ft | 353 kts | 156° |
| 2026-04-28 15:10 | 40.18284 | 23.12044 | 12924 ft | 357 kts | 156° |
| 2026-04-28 15:10 | 40.16007 | 23.13393 | 13695 ft | 361 kts | 156° |
| 2026-04-28 15:11 | 40.13705 | 23.14753 | 14374 ft | 365 kts | 156° |
| 2026-04-28 15:11 | 40.11380 | 23.16127 | 15029 ft | 369 kts | 157° |
| 2026-04-28 15:11 | 40.09005 | 23.17440 | 15687 ft | 372 kts | 159° |
| 2026-04-28 15:11 | 40.06577 | 23.18666 | 16358 ft | 376 kts | 161° |
| 2026-04-28 15:12 | 40.04111 | 23.19852 | 17002 ft | 379 kts | 161° |
| 2026-04-28 15:12 | 40.01620 | 23.21031 | 17653 ft | 383 kts | 161° |
| 2026-04-28 15:12 | 39.99101 | 23.22227 | 18295 ft | 387 kts | 161° |
| 2026-04-28 15:12 | 39.96559 | 23.23446 | 18847 ft | 391 kts | 161° |
| 2026-04-28 15:13 | 39.93999 | 23.24688 | 19390 ft | 394 kts | 161° |
| 2026-04-28 15:13 | 39.91420 | 23.25950 | 19940 ft | 398 kts | 160° |
| 2026-04-28 15:13 | 39.88820 | 23.27231 | 20482 ft | 401 kts | 160° |
| 2026-04-28 15:13 | 39.86197 | 23.28526 | 21022 ft | 405 kts | 160° |
| 2026-04-28 15:14 | 39.83555 | 23.29831 | 21541 ft | 408 kts | 160° |
| 2026-04-28 15:14 | 39.80887 | 23.31143 | 22057 ft | 411 kts | 160° |
| 2026-04-28 15:14 | 39.78196 | 23.32462 | 22563 ft | 415 kts | 160° |
| 2026-04-28 15:14 | 39.75486 | 23.33785 | 23072 ft | 418 kts | 160° |
| 2026-04-28 15:15 | 39.72755 | 23.35113 | 23578 ft | 421 kts | 160° |
| 2026-04-28 15:15 | 39.70000 | 23.36451 | 23996 ft | 424 kts | 160° |
| 2026-04-28 15:15 | 39.67227 | 23.37801 | 24409 ft | 427 kts | 160° |
| 2026-04-28 15:15 | 39.64441 | 23.39161 | 24822 ft | 429 kts | 160° |
| 2026-04-28 15:16 | 39.61635 | 23.40527 | 25230 ft | 432 kts | 160° |
| 2026-04-28 15:16 | 39.58814 | 23.41899 | 25634 ft | 434 kts | 160° |
| 2026-04-28 15:16 | 39.55983 | 23.43277 | 26038 ft | 437 kts | 160° |
| 2026-04-28 15:16 | 39.53127 | 23.44667 | 26418 ft | 439 kts | 160° |
| 2026-04-28 15:17 | 39.50255 | 23.46062 | 26825 ft | 442 kts | 160° |
| 2026-04-28 15:17 | 39.47367 | 23.47456 | 27211 ft | 444 kts | 160° |
| 2026-04-28 15:17 | 39.44464 | 23.48855 | 27593 ft | 447 kts | 160° |
| 2026-04-28 15:17 | 39.41544 | 23.50263 | 27984 ft | 449 kts | 160° |
| 2026-04-28 15:18 | 39.38611 | 23.51682 | 28359 ft | 451 kts | 160° |
| 2026-04-28 15:18 | 39.35663 | 23.53110 | 28710 ft | 454 kts | 160° |
| 2026-04-28 15:18 | 39.32697 | 23.54547 | 29091 ft | 456 kts | 160° |
| 2026-04-28 15:18 | 39.29721 | 23.55987 | 29440 ft | 458 kts | 160° |
| 2026-04-28 15:19 | 39.26729 | 23.57431 | 29805 ft | 460 kts | 160° |
| 2026-04-28 15:19 | 39.23723 | 23.58880 | 30151 ft | 463 kts | 160° |
| 2026-04-28 15:19 | 39.20698 | 23.60334 | 30438 ft | 465 kts | 160° |
| 2026-04-28 15:19 | 39.17655 | 23.61791 | 30719 ft | 467 kts | 160° |
| 2026-04-28 15:20 | 39.14592 | 23.63195 | 30986 ft | 469 kts | 161° |
| 2026-04-28 15:20 | 39.08489 | 23.65803 | 31091 ft | 447 kts | 162° |
| 2026-04-28 15:21 | 39.02651 | 23.68227 | 31098 ft | 438 kts | 162° |
| 2026-04-28 15:21 | 38.96873 | 23.70672 | 31101 ft | 437 kts | 162° |
| 2026-04-28 15:22 | 38.91111 | 23.73145 | 31104 ft | 436 kts | 162° |
| 2026-04-28 15:22 | 38.85350 | 23.75614 | 31108 ft | 437 kts | 162° |
| 2026-04-28 15:23 | 38.79578 | 23.78072 | 31096 ft | 437 kts | 162° |
| 2026-04-28 15:23 | 38.73804 | 23.80526 | 31100 ft | 437 kts | 162° |
| 2026-04-28 15:24 | 38.68030 | 23.82982 | 31096 ft | 437 kts | 162° |
| 2026-04-28 15:24 | 38.62249 | 23.85427 | 31099 ft | 437 kts | 162° |
| 2026-04-28 15:25 | 38.56471 | 23.87870 | 31094 ft | 437 kts | 162° |
| 2026-04-28 15:25 | 38.50700 | 23.90310 | 31095 ft | 437 kts | 162° |
| 2026-04-28 15:26 | 38.44931 | 23.92747 | 31095 ft | 437 kts | 162° |
| 2026-04-28 15:26 | 38.39160 | 23.95177 | 31096 ft | 437 kts | 162° |
| 2026-04-28 15:27 | 38.33396 | 23.97599 | 31092 ft | 436 kts | 162° |
| 2026-04-28 15:27 | 38.27630 | 24.00025 | 31091 ft | 436 kts | 162° |
| 2026-04-28 15:28 | 38.21865 | 24.02442 | 31091 ft | 436 kts | 162° |
| 2026-04-28 15:28 | 38.16100 | 24.04850 | 31088 ft | 436 kts | 162° |
| 2026-04-28 15:29 | 38.10335 | 24.07258 | 31097 ft | 436 kts | 162° |
| 2026-04-28 15:29 | 38.04561 | 24.09661 | 31093 ft | 437 kts | 162° |
| 2026-04-28 15:30 | 37.98783 | 24.12064 | 31083 ft | 437 kts | 162° |
| 2026-04-28 15:30 | 37.92966 | 24.14484 | 31095 ft | 437 kts | 162° |
| 2026-04-28 15:31 | 37.87188 | 24.16885 | 31091 ft | 437 kts | 162° |
| 2026-04-28 15:31 | 37.81444 | 24.19260 | 31092 ft | 437 kts | 162° |
| 2026-04-28 15:32 | 37.75628 | 24.21666 | 31082 ft | 437 kts | 162° |
| 2026-04-28 15:32 | 37.69846 | 24.24049 | 31081 ft | 437 kts | 162° |
| 2026-04-28 15:33 | 37.64101 | 24.26419 | 31063 ft | 437 kts | 162° |
| 2026-04-28 15:33 | 37.58282 | 24.28812 | 31069 ft | 437 kts | 162° |
| 2026-04-28 15:34 | 37.52823 | 24.32141 | 31063 ft | 437 kts | 147° |
| 2026-04-28 15:34 | 37.47672 | 24.36215 | 31064 ft | 437 kts | 148° |
| 2026-04-28 15:35 | 37.42505 | 24.40268 | 31082 ft | 439 kts | 147° |
| 2026-04-28 15:35 | 37.34720 | 24.46357 | 31064 ft | 439 kts | 147° |
| 2026-04-28 15:36 | 37.29526 | 24.50419 | 31060 ft | 440 kts | 148° |
| 2026-04-28 15:36 | 37.24328 | 24.54470 | 31055 ft | 440 kts | 148° |
| 2026-04-28 15:37 | 37.19163 | 24.58493 | 31055 ft | 440 kts | 148° |
| 2026-04-28 15:37 | 37.14806 | 24.61891 | 31055 ft | 440 kts | 147° |
| 2026-04-28 15:38 | 37.08721 | 24.66631 | 31045 ft | 441 kts | 148° |
| 2026-04-28 15:38 | 37.03504 | 24.70675 | 31046 ft | 441 kts | 148° |
| 2026-04-28 15:39 | 36.98292 | 24.74721 | 31048 ft | 441 kts | 148° |
| 2026-04-28 15:39 | 36.93073 | 24.78756 | 31044 ft | 441 kts | 148° |
| 2026-04-28 15:40 | 36.87852 | 24.82785 | 31033 ft | 441 kts | 148° |
| 2026-04-28 15:40 | 36.82638 | 24.86825 | 31034 ft | 441 kts | 148° |
| 2026-04-28 15:41 | 36.77411 | 24.90863 | 31037 ft | 442 kts | 148° |
| 2026-04-28 15:41 | 36.72186 | 24.94885 | 30966 ft | 441 kts | 148° |
| 2026-04-28 15:42 | 36.69589 | 24.96881 | 30588 ft | 435 kts | 148° |
| 2026-04-28 15:42 | 36.67015 | 24.98856 | 30090 ft | 433 kts | 148° |
| 2026-04-28 15:42 | 36.64466 | 25.00813 | 29589 ft | 429 kts | 148° |
| 2026-04-28 15:42 | 36.61943 | 25.02751 | 29113 ft | 424 kts | 148° |
| 2026-04-28 15:43 | 36.59446 | 25.04663 | 28667 ft | 419 kts | 148° |
| 2026-04-28 15:43 | 36.57046 | 25.06501 | 28238 ft | 414 kts | 148° |
| 2026-04-28 15:43 | 36.54607 | 25.08369 | 27803 ft | 410 kts | 148° |
| 2026-04-28 15:43 | 36.52190 | 25.10220 | 27372 ft | 406 kts | 148° |
| 2026-04-28 15:44 | 36.49797 | 25.12048 | 26942 ft | 402 kts | 149° |
| 2026-04-28 15:44 | 36.47424 | 25.13859 | 26510 ft | 398 kts | 149° |
| 2026-04-28 15:44 | 36.45068 | 25.15652 | 26075 ft | 396 kts | 149° |
| 2026-04-28 15:44 | 36.42731 | 25.17430 | 25631 ft | 393 kts | 149° |
| 2026-04-28 15:45 | 36.40422 | 25.19185 | 25199 ft | 391 kts | 149° |
| 2026-04-28 15:45 | 36.38090 | 25.20958 | 24740 ft | 389 kts | 149° |
| 2026-04-28 15:45 | 36.35786 | 25.22713 | 24285 ft | 388 kts | 149° |
| 2026-04-28 15:45 | 36.33488 | 25.24460 | 23821 ft | 387 kts | 149° |
| 2026-04-28 15:46 | 36.31225 | 25.26180 | 23312 ft | 386 kts | 149° |
| 2026-04-28 15:46 | 36.28909 | 25.27942 | 22836 ft | 384 kts | 149° |
| 2026-04-28 15:46 | 36.26638 | 25.29668 | 22376 ft | 382 kts | 149° |
| 2026-04-28 15:46 | 36.24376 | 25.31379 | 21928 ft | 380 kts | 149° |
| 2026-04-28 15:47 | 36.22126 | 25.33074 | 21487 ft | 378 kts | 150° |
| 2026-04-28 15:47 | 36.20643 | 25.34193 | 21187 ft | 377 kts | 150° |
| 2026-04-28 15:47 | 36.18409 | 25.35879 | 20732 ft | 375 kts | 150° |
| 2026-04-28 15:47 | 36.16188 | 25.37559 | 20298 ft | 373 kts | 149° |
| 2026-04-28 15:48 | 36.13979 | 25.39231 | 19859 ft | 372 kts | 149° |
| 2026-04-28 15:48 | 36.11699 | 25.40705 | 19422 ft | 368 kts | 160° |
| 2026-04-28 15:48 | 36.09282 | 25.41721 | 18991 ft | 366 kts | 164° |
| 2026-04-28 15:48 | 36.06866 | 25.42691 | 18552 ft | 365 kts | 164° |
| 2026-04-28 15:49 | 36.04456 | 25.43660 | 18110 ft | 364 kts | 163° |
| 2026-04-28 15:49 | 36.02057 | 25.44627 | 17682 ft | 361 kts | 163° |
| 2026-04-28 15:49 | 35.99677 | 25.45587 | 17263 ft | 359 kts | 163° |
| 2026-04-28 15:49 | 35.97312 | 25.46542 | 16852 ft | 356 kts | 163° |
| 2026-04-28 15:50 | 35.94962 | 25.47488 | 16443 ft | 354 kts | 163° |
| 2026-04-28 15:50 | 35.92624 | 25.48428 | 16043 ft | 353 kts | 163° |
| 2026-04-28 15:50 | 35.90299 | 25.49364 | 15644 ft | 351 kts | 163° |
| 2026-04-28 15:50 | 35.87981 | 25.50295 | 15247 ft | 349 kts | 163° |
| 2026-04-28 15:51 | 35.85677 | 25.51219 | 14843 ft | 348 kts | 163° |
| 2026-04-28 15:51 | 35.83379 | 25.52140 | 14448 ft | 346 kts | 163° |
| 2026-04-28 15:51 | 35.81090 | 25.53056 | 14047 ft | 346 kts | 163° |
| 2026-04-28 15:51 | 35.78805 | 25.53967 | 13629 ft | 345 kts | 163° |
| 2026-04-28 15:52 | 35.76527 | 25.54874 | 13220 ft | 343 kts | 163° |
| 2026-04-28 15:52 | 35.74263 | 25.55777 | 12813 ft | 340 kts | 163° |
| 2026-04-28 15:52 | 35.72019 | 25.56676 | 12414 ft | 338 kts | 162° |
| 2026-04-28 15:52 | 35.69826 | 25.57693 | 11996 ft | 336 kts | 153° |
| 2026-04-28 15:53 | 35.67876 | 25.59257 | 11596 ft | 335 kts | 141° |
| 2026-04-28 15:53 | 35.66065 | 25.61049 | 11184 ft | 333 kts | 141° |
| 2026-04-28 15:53 | 35.64266 | 25.62824 | 10884 ft | 328 kts | 141° |
| 2026-04-28 15:53 | 35.62510 | 25.64548 | 10718 ft | 319 kts | 143° |
| 2026-04-28 15:54 | 35.60560 | 25.65764 | 10389 ft | 314 kts | 168° |
| 2026-04-28 15:54 | 35.58421 | 25.65806 | 10037 ft | 307 kts | 196° |
| 2026-04-28 15:54 | 35.56540 | 25.64705 | 9674 ft | 298 kts | 222° |
| 2026-04-28 15:54 | 35.55246 | 25.62792 | 9089 ft | 289 kts | 243° |
| 2026-04-28 15:55 | 35.54298 | 25.60624 | 8441 ft | 285 kts | 245° |
| 2026-04-28 15:55 | 35.53395 | 25.58519 | 8082 ft | 272 kts | 245° |
| 2026-04-28 15:55 | 35.52531 | 25.56503 | 7728 ft | 261 kts | 246° |
| 2026-04-28 15:55 | 35.51685 | 25.54538 | 7386 ft | 262 kts | 246° |
| 2026-04-28 15:56 | 35.50829 | 25.52554 | 7028 ft | 263 kts | 245° |
| 2026-04-28 15:56 | 35.49972 | 25.50575 | 6671 ft | 262 kts | 246° |
| 2026-04-28 15:56 | 35.49114 | 25.48601 | 6296 ft | 262 kts | 246° |
| 2026-04-28 15:56 | 35.48246 | 25.46605 | 5901 ft | 261 kts | 246° |
| 2026-04-28 15:57 | 35.47389 | 25.44631 | 5478 ft | 262 kts | 245° |
| 2026-04-28 15:57 | 35.46347 | 25.42796 | 5075 ft | 266 kts | 227° |
| 2026-04-28 15:57 | 35.45093 | 25.41681 | 4753 ft | 270 kts | 209° |
| 2026-04-28 15:57 | 35.43747 | 25.41095 | 4384 ft | 274 kts | 191° |
| 2026-04-28 15:58 | 35.41837 | 25.41119 | 3911 ft | 278 kts | 167° |
| 2026-04-28 15:58 | 35.39988 | 25.41848 | 3405 ft | 281 kts | 162° |
| 2026-04-28 15:58 | 35.38102 | 25.42463 | 3091 ft | 275 kts | 169° |
| 2026-04-28 15:58 | 35.36270 | 25.42823 | 3024 ft | 259 kts | 176° |
| 2026-04-28 15:59 | 35.34573 | 25.42495 | 2949 ft | 240 kts | 209° |
| 2026-04-28 15:59 | 35.33374 | 25.41234 | 2868 ft | 221 kts | 242° |
| 2026-04-28 15:59 | 35.32887 | 25.39546 | 2789 ft | 204 kts | 269° |
| 2026-04-28 15:59 | 35.32950 | 25.37878 | 2746 ft | 189 kts | 277° |
| 2026-04-28 16:00 | 35.33042 | 25.36344 | 2674 ft | 173 kts | 277° |
| 2026-04-28 16:00 | 35.33122 | 25.34934 | 2594 ft | 159 kts | 278° |
| 2026-04-28 16:00 | 35.33197 | 25.33639 | 2550 ft | 144 kts | 278° |
| 2026-04-28 16:00 | 35.33266 | 25.32455 | 2489 ft | 137 kts | 278° |
| 2026-04-28 16:01 | 35.33334 | 25.31292 | 2251 ft | 137 kts | 278° |
| 2026-04-28 16:01 | 35.33403 | 25.30130 | 2064 ft | 137 kts | 278° |
| 2026-04-28 16:01 | 35.33465 | 25.28966 | 1821 ft | 136 kts | 277° |
| 2026-04-28 16:01 | 35.33517 | 25.27818 | 1581 ft | 133 kts | 277° |
| 2026-04-28 16:02 | 35.33556 | 25.26690 | 1331 ft | 132 kts | 276° |
| 2026-04-28 16:02 | 35.33554 | 25.25566 | 1112 ft | 133 kts | 272° |
| 2026-04-28 16:02 | 35.33531 | 25.24452 | 1021 ft | 130 kts | 275° |
| 2026-04-28 16:02 | 35.33583 | 25.23353 | 814 ft | 129 kts | 279° |
| 2026-04-28 16:03 | 35.33674 | 25.22262 | 618 ft | 128 kts | 277° |
| 2026-04-28 16:03 | 35.33743 | 25.21177 | 469 ft | 128 kts | 279° |
| 2026-04-28 16:03 | 35.33823 | 25.20093 | 316 ft | 127 kts | 281° |
| 2026-04-28 16:03 | 35.33906 | 25.18998 | 133 ft | 130 kts | 280° |
| 2026-04-28 16:04 | 35.33983 | 25.17968 | 93 ft | 101 kts | 274° |
| 2026-04-28 16:04 | 35.34014 | 25.17467 | 94 ft | 31 kts | 275° |
| 2026-04-28 16:04 | 35.34030 | 25.17221 | 90 ft | 26 kts | 267° |
| 2026-04-28 16:04 | 35.33991 | 25.17092 | 91 ft | 10 kts | 245° |
| 2026-04-28 16:05 | 35.33949 | 25.17054 | 91 ft | 7 kts | 149° |
| 2026-04-28 16:05 | 35.33940 | 25.17106 | 92 ft | 6 kts | 95° |
| 2026-04-28 16:05 | 35.33936 | 25.17151 | 90 ft | 5 kts | 95° |
| 2026-04-28 16:05 | 35.33934 | 25.17186 | 90 ft | 4 kts | 95° |
| 2026-04-28 16:06 | 35.33931 | 25.17225 | 91 ft | 6 kts | 95° |
| 2026-04-28 16:06 | 35.33926 | 25.17284 | 92 ft | 8 kts | 95° |
| 2026-04-28 16:06 | 35.33922 | 25.17345 | 91 ft | 6 kts | 94° |
| 2026-04-28 16:06 | 35.33917 | 25.17416 | 91 ft | 9 kts | 94° |
| 2026-04-28 16:07 | 35.33912 | 25.17489 | 93 ft | 6 kts | 104° |
| 2026-04-28 16:07 | 35.33866 | 25.17499 | 93 ft | 9 kts | 185° |
| 2026-04-28 16:07 | 35.33771 | 25.17483 | 93 ft | 3 kts | 216° |
| 2026-04-28 16:08 | 35.33766 | 25.17452 | 92 ft | 4 kts | 268° |
| 2026-04-28 16:08 | 35.33768 | 25.17422 | 91 ft | 1 kts | 276° |
| 2026-04-28 16:08 | 35.33768 | 25.17414 | 93 ft | 1 kts | 275° |